createdAt,value
2018-03-16T00:02:03.781Z,60.12
2018-03-16T00:04:31.317Z,61.70
2018-03-16T00:06:59.628Z,60.50
2018-03-16T00:09:27.109Z,59.72
2018-03-16T00:11:54.593Z,63.25
2018-03-16T00:14:22.102Z,69.23
2018-03-16T00:16:49.605Z,66.80
2018-03-16T00:19:17.099Z,69.68
2018-03-16T00:21:45.404Z,57.55
2018-03-16T00:24:12.934Z,63.38
2018-03-16T00:26:41.222Z,58.97
2018-03-16T00:29:08.736Z,60.65
2018-03-16T00:31:36.229Z,60.12
2018-03-16T00:34:04.504Z,58.10
2018-03-16T00:36:32.786Z,60.83
2018-03-16T00:39:01.094Z,59.78
2018-03-16T00:41:28.683Z,66.40
2018-03-16T00:43:56.182Z,58.83
2018-03-16T00:46:23.674Z,55.17
2018-03-16T00:48:51.187Z,59.28
2018-03-16T00:51:18.713Z,64.03
2018-03-16T00:53:46.233Z,62.42
2018-03-16T00:56:14.531Z,55.53
2018-03-16T00:58:42.069Z,56.30
2018-03-16T01:01:10.396Z,59.70
2018-03-16T01:03:37.926Z,63.90
2018-03-16T01:06:05.424Z,60.65
2018-03-16T01:08:32.957Z,60.43
2018-03-16T01:11:00.472Z,57.10
2018-03-16T01:13:28.756Z,62.00
2018-03-16T01:15:57.098Z,65.37
2018-03-16T01:18:24.687Z,59.28
2018-03-16T01:20:52.222Z,70.23
2018-03-16T01:23:20.506Z,56.97
2018-03-16T01:25:48.106Z,64.47
2018-03-16T01:28:17.108Z,58.42
2018-03-16T01:30:44.646Z,67.40
2018-03-16T01:33:12.158Z,61.30
2018-03-16T01:35:39.707Z,66.43
2018-03-16T01:38:07.221Z,60.95
2018-03-16T01:40:35.481Z,62.67
2018-03-16T01:43:02.970Z,65.28
2018-03-16T01:45:31.302Z,63.67
2018-03-16T01:47:58.823Z,63.55
2018-03-16T01:50:26.363Z,64.90
2018-03-16T01:53:06.537Z,67.40
2018-03-16T01:55:34.037Z,65.68
2018-03-16T01:58:01.912Z,58.38
2018-03-16T02:00:29.421Z,70.07
2018-03-16T02:02:57.693Z,55.20
2018-03-16T02:05:26.029Z,63.87
2018-03-16T02:07:53.569Z,68.32
2018-03-16T02:10:21.059Z,61.83
2018-03-16T02:12:48.531Z,67.23
2018-03-16T02:15:16.006Z,62.95
2018-03-16T02:17:44.449Z,65.70
2018-03-16T02:20:11.927Z,65.45
2018-03-16T02:22:39.412Z,61.05
2018-03-16T02:25:06.913Z,66.03
2018-03-16T02:27:34.433Z,68.60
2018-03-16T02:30:02.020Z,68.05
2018-03-16T02:32:29.585Z,67.12
2018-03-16T02:34:57.143Z,66.03
2018-03-16T02:37:24.684Z,66.55
2018-03-16T02:39:52.167Z,63.83
2018-03-16T02:42:19.757Z,65.05
2018-03-16T02:44:47.283Z,68.65
2018-03-16T02:47:14.755Z,70.93
2018-03-16T02:49:42.273Z,62.42
2018-03-16T02:52:09.780Z,69.12
2018-03-16T02:54:37.263Z,65.97
2018-03-16T02:57:04.749Z,70.30
2018-03-16T02:59:33.123Z,78.60
2018-03-16T03:02:00.613Z,74.72
2018-03-16T03:04:28.122Z,63.22
2018-03-16T03:06:55.619Z,67.72
2018-03-16T03:09:23.110Z,67.12
2018-03-16T03:11:50.592Z,83.12
2018-03-16T03:14:18.859Z,64.53
2018-03-16T03:16:46.435Z,65.65
2018-03-16T03:19:14.274Z,80.40
2018-03-16T03:21:41.790Z,73.05
2018-03-16T03:24:10.028Z,73.20
2018-03-16T03:26:39.020Z,69.20
2018-03-16T03:29:06.552Z,69.25
2018-03-16T03:31:34.032Z,70.68
2018-03-16T03:34:01.503Z,73.82
2018-03-16T03:36:29.045Z,70.40
2018-03-16T03:38:56.570Z,71.35
2018-03-16T03:41:24.118Z,75.68
2018-03-16T03:43:52.383Z,62.33
2018-03-16T03:46:20.656Z,64.57
2018-03-16T03:48:48.954Z,73.87
2018-03-16T03:51:17.212Z,76.78
2018-03-16T03:53:45.472Z,79.35
2018-03-16T03:56:13.008Z,70.50
2018-03-16T03:58:40.576Z,83.78
2018-03-16T04:01:08.056Z,77.20
2018-03-16T04:03:35.537Z,72.82
2018-03-16T04:06:03.781Z,86.07
2018-03-16T04:08:31.272Z,72.18
2018-03-16T04:10:58.782Z,79.82
2018-03-16T04:13:26.261Z,78.20
2018-03-16T04:15:53.786Z,81.12
2018-03-16T04:18:21.314Z,82.78
2018-03-16T04:20:49.619Z,84.82
2018-03-16T04:23:17.135Z,79.35
2018-03-16T04:25:44.629Z,77.15
2018-03-16T04:28:12.111Z,77.95
2018-03-16T04:30:39.675Z,80.60
2018-03-16T04:33:07.171Z,85.90
2018-03-16T04:35:34.665Z,74.10
2018-03-16T04:38:02.193Z,81.07
2018-03-16T04:40:29.691Z,85.15
2018-03-16T04:42:57.240Z,78.30
2018-03-16T04:45:25.537Z,75.70
2018-03-16T04:47:53.066Z,76.60
2018-03-16T04:50:21.297Z,79.47
2018-03-16T04:52:48.808Z,68.03
2018-03-16T04:55:16.283Z,87.15
2018-03-16T04:57:43.797Z,77.47
2018-03-16T05:00:11.295Z,76.28
2018-03-16T05:02:39.555Z,80.45
2018-03-16T05:05:07.831Z,79.05
2018-03-16T05:07:35.357Z,72.80
2018-03-16T05:10:02.841Z,86.00
2018-03-16T05:12:30.323Z,79.62
2018-03-16T05:14:57.790Z,74.97
2018-03-16T05:17:25.303Z,80.43
2018-03-16T05:19:52.785Z,70.90
2018-03-16T05:22:21.067Z,83.90
2018-03-16T05:24:48.647Z,78.07
2018-03-16T05:27:16.921Z,89.15
2018-03-16T05:29:44.406Z,77.03
2018-03-16T05:32:11.869Z,88.15
2018-03-16T05:34:39.333Z,74.65
2018-03-16T05:37:06.803Z,76.12
2018-03-16T05:39:34.268Z,72.68
2018-03-16T05:42:01.821Z,74.68
2018-03-16T05:44:29.290Z,74.45
2018-03-16T05:46:56.756Z,73.10
2018-03-16T05:49:24.244Z,71.72
2018-03-16T05:51:51.707Z,73.00
2018-03-16T05:54:19.169Z,75.32
2018-03-16T05:56:46.658Z,82.03
2018-03-16T05:59:14.131Z,72.35
2018-03-16T06:01:43.111Z,63.58
2018-03-16T06:04:10.593Z,68.65
2018-03-16T06:06:38.065Z,76.35
2018-03-16T06:09:06.322Z,67.22
2018-03-16T06:11:33.832Z,67.97
2018-03-16T06:14:01.345Z,66.80
2018-03-16T06:16:30.318Z,63.40
2018-03-16T06:18:57.806Z,68.45
2018-03-16T06:21:25.268Z,59.50
2018-03-16T06:23:52.733Z,63.80
2018-03-16T06:26:20.986Z,65.87
2018-03-16T06:28:48.458Z,66.50
2018-03-16T06:31:15.916Z,62.55
2018-03-16T06:33:43.372Z,64.57
2018-03-16T06:36:10.844Z,61.30
2018-03-16T06:38:39.080Z,62.50
2018-03-16T06:41:06.545Z,60.20
2018-03-16T06:43:34.009Z,67.57
2018-03-16T06:46:01.582Z,61.05
2018-03-16T06:48:29.049Z,54.97
2018-03-16T06:50:57.283Z,58.95
2018-03-16T06:53:24.779Z,53.17
2018-03-16T06:55:52.238Z,58.80
2018-03-16T06:58:19.698Z,54.17
2018-03-16T07:00:47.152Z,62.38
2018-03-16T07:03:14.712Z,52.88
2018-03-16T07:05:42.170Z,52.22
2018-03-16T07:08:09.637Z,50.70
2018-03-16T07:10:37.104Z,50.25
2018-03-16T07:13:05.340Z,46.75
2018-03-16T07:15:35.541Z,48.10
2018-03-16T07:18:03.038Z,47.90
2018-03-16T07:20:30.501Z,44.80
2018-03-16T07:22:57.966Z,41.47
2018-03-16T07:25:25.426Z,44.97
2018-03-16T07:27:52.983Z,47.75
2018-03-16T07:30:20.448Z,38.55
2018-03-16T07:32:48.686Z,41.03
2018-03-16T07:35:16.145Z,31.02
2018-03-16T07:37:43.618Z,36.97
2018-03-16T07:40:11.079Z,36.88
2018-03-16T07:42:38.541Z,40.12
2018-03-16T07:45:05.996Z,42.40
2018-03-16T07:47:33.487Z,50.67
2018-03-16T07:50:00.930Z,46.20
2018-03-16T07:52:28.407Z,36.83
2018-03-16T07:54:56.631Z,36.65
2018-03-16T07:57:24.107Z,41.47
2018-03-16T07:59:51.567Z,37.28
2018-03-16T08:02:19.045Z,39.25
2018-03-16T08:04:46.505Z,34.00
2018-03-16T08:07:14.035Z,30.85
2018-03-16T08:09:41.452Z,35.20
2018-03-16T08:12:08.921Z,34.08
2018-03-16T08:14:36.382Z,31.05
2018-03-16T08:17:03.848Z,31.83
2018-03-16T08:19:31.333Z,32.00
2018-03-16T08:21:58.889Z,32.63
2018-03-16T08:24:26.357Z,32.42
2018-03-16T08:26:53.922Z,30.25
2018-03-16T08:29:21.534Z,35.45
2018-03-16T08:31:48.985Z,33.30
2018-03-16T08:34:16.470Z,28.55
2018-03-16T08:36:43.929Z,30.80
2018-03-16T08:39:11.449Z,31.20
2018-03-16T08:41:38.865Z,27.37
2018-03-16T08:44:06.345Z,28.20
2018-03-16T08:46:34.635Z,31.73
2018-03-16T08:49:02.874Z,23.90
2018-03-16T08:51:30.602Z,25.60
2018-03-16T08:53:58.077Z,29.50
2018-03-16T08:56:25.546Z,35.20
2018-03-16T08:58:53.015Z,29.42
2018-03-16T09:01:20.495Z,29.85
2018-03-16T09:03:47.966Z,35.55
2018-03-16T09:06:15.428Z,32.83
2018-03-16T09:08:43.690Z,35.25
2018-03-16T09:11:11.146Z,34.13
2018-03-16T09:13:38.604Z,29.98
2018-03-16T09:16:06.073Z,32.95
2018-03-16T09:18:33.537Z,28.25
2018-03-16T09:21:01.775Z,30.67
2018-03-16T09:23:29.233Z,35.72
2018-03-16T09:25:56.701Z,35.03
2018-03-16T09:28:24.161Z,35.88
2018-03-16T09:30:51.633Z,40.92
2018-03-16T09:33:19.105Z,37.95
2018-03-16T09:35:47.346Z,31.65
2018-03-16T09:38:14.818Z,35.50
2018-03-16T09:40:42.281Z,33.17
2018-03-16T09:43:11.253Z,32.55
2018-03-16T09:45:38.718Z,33.75
2018-03-16T09:48:06.190Z,33.60
2018-03-16T09:50:33.713Z,33.60
2018-03-16T09:53:01.320Z,33.47
2018-03-16T09:55:46.593Z,33.72
2018-03-16T09:58:14.057Z,41.10
2018-03-16T10:00:41.542Z,30.27
2018-03-16T10:03:09.770Z,29.30
2018-03-16T10:05:37.226Z,37.42
2018-03-16T10:08:04.688Z,30.27
2018-03-16T10:10:32.155Z,37.65
2018-03-16T10:12:59.640Z,36.05
2018-03-16T10:15:27.874Z,34.60
2018-03-16T10:17:55.354Z,26.27
2018-03-16T10:20:22.818Z,33.95
2018-03-16T10:22:51.049Z,29.75
2018-03-16T10:25:18.511Z,28.10
2018-03-16T10:27:45.985Z,26.60
2018-03-16T10:30:13.468Z,27.35
2018-03-16T10:32:40.941Z,37.00
2018-03-16T10:35:09.165Z,28.48
2018-03-16T10:37:36.625Z,30.73
2018-03-16T10:40:04.087Z,31.25
2018-03-16T10:42:31.545Z,31.75
2018-03-16T10:44:59.025Z,28.90
2018-03-16T10:47:26.488Z,27.42
2018-03-16T10:49:53.974Z,29.73
2018-03-16T10:52:22.207Z,28.38
2018-03-16T10:54:49.673Z,27.45
2018-03-16T10:57:17.151Z,30.42
2018-03-16T10:59:44.614Z,29.40
2018-03-16T11:02:17.974Z,31.42
2018-03-16T11:04:45.464Z,28.83
2018-03-16T11:07:19.637Z,30.30
2018-03-16T11:09:47.116Z,28.98
2018-03-16T11:12:14.584Z,37.85
2018-03-16T11:14:42.053Z,32.40
2018-03-16T11:17:09.519Z,28.85
2018-03-16T11:19:36.988Z,30.48
2018-03-16T11:22:05.221Z,27.70
2018-03-16T11:24:32.693Z,30.10
2018-03-16T11:27:00.313Z,32.70
2018-03-16T11:29:27.787Z,28.10
2018-03-16T11:31:55.259Z,29.75
2018-03-16T11:34:22.722Z,29.83
2018-03-16T11:36:50.184Z,24.15
2018-03-16T11:39:17.649Z,26.42
2018-03-16T11:41:45.141Z,25.23
2018-03-16T11:44:12.653Z,27.75
2018-03-16T11:46:40.145Z,24.75
2018-03-16T11:49:07.765Z,27.58
2018-03-16T11:51:35.281Z,26.65
2018-03-16T11:54:03.543Z,29.30
2018-03-16T11:56:31.044Z,26.20
2018-03-16T11:58:58.583Z,22.87
2018-03-16T12:01:26.827Z,26.05
2018-03-16T12:03:54.306Z,21.35
2018-03-16T12:06:22.645Z,24.67
2018-03-16T12:08:50.108Z,22.65
2018-03-16T12:11:17.650Z,22.50
2018-03-16T12:13:45.117Z,26.40
2018-03-16T12:16:12.582Z,25.75
2018-03-16T12:18:40.043Z,24.05
2018-03-16T12:21:07.520Z,27.17
2018-03-16T12:23:34.975Z,22.25
2018-03-16T12:26:02.454Z,28.98
2018-03-16T12:28:49.341Z,22.83
2018-03-16T12:30:58.169Z,19.70
2018-03-16T12:33:25.625Z,22.48
2018-03-16T12:35:53.367Z,20.23
2018-03-16T12:38:20.817Z,22.90
2018-03-16T12:40:48.312Z,20.88
2018-03-16T12:43:15.757Z,22.20
2018-03-16T12:45:43.236Z,20.50
2018-03-16T12:48:10.707Z,20.12
2018-03-16T12:50:38.957Z,22.70
2018-03-16T12:53:06.413Z,20.02
2018-03-16T12:55:33.918Z,19.62
2018-03-16T12:58:01.400Z,19.92
2018-03-16T13:00:28.961Z,18.60
2018-03-16T13:02:56.470Z,20.62
2018-03-16T13:05:23.947Z,25.25
2018-03-16T13:07:52.225Z,20.67
2018-03-16T13:10:19.669Z,20.60
2018-03-16T13:12:47.928Z,19.08
2018-03-16T13:15:15.390Z,20.15
2018-03-16T13:17:42.864Z,22.05
2018-03-16T13:20:11.097Z,18.65
2018-03-16T13:22:38.573Z,17.10
2018-03-16T13:25:06.047Z,20.08
2018-03-16T13:27:33.538Z,22.50
2018-03-16T13:30:01.767Z,22.30
2018-03-16T13:32:29.241Z,20.85
2018-03-16T13:34:56.755Z,18.62
2018-03-16T13:37:24.271Z,19.17
2018-03-16T13:39:52.522Z,22.30
2018-03-16T13:42:20.004Z,19.33
2018-03-16T13:44:47.470Z,20.73
2018-03-16T13:47:15.720Z,21.30
2018-03-16T13:49:43.409Z,21.48
2018-03-16T13:52:10.967Z,20.12
2018-03-16T13:54:38.413Z,22.00
2018-03-16T13:57:05.945Z,21.73
2018-03-16T13:59:33.463Z,20.12
2018-03-16T14:02:01.710Z,18.92
2018-03-16T14:04:29.168Z,22.55
2018-03-16T14:06:56.671Z,20.67
2018-03-16T14:09:24.135Z,21.02
2018-03-16T14:11:51.615Z,23.02
2018-03-16T14:14:19.126Z,18.52
2018-03-16T14:16:47.362Z,22.27
2018-03-16T14:19:14.837Z,24.30
2018-03-16T14:21:42.456Z,23.60
2018-03-16T14:24:10.078Z,26.20
2018-03-16T14:26:38.325Z,17.87
2018-03-16T14:29:05.872Z,21.83
2018-03-16T14:31:33.413Z,27.35
2018-03-16T14:34:00.897Z,26.02
2018-03-16T14:36:28.413Z,24.92
2018-03-16T14:38:55.928Z,25.35
2018-03-16T14:41:23.384Z,23.45
2018-03-16T14:43:50.890Z,26.00
2018-03-16T14:46:18.361Z,29.00
2018-03-16T14:48:45.849Z,24.15
2018-03-16T14:51:13.352Z,23.02
2018-03-16T14:53:41.665Z,26.17
2018-03-16T14:56:09.126Z,20.80
2018-03-16T14:58:36.602Z,22.13
2018-03-16T15:01:04.089Z,21.83
2018-03-16T15:03:31.618Z,21.98
2018-03-16T15:05:59.068Z,22.33
2018-03-16T15:08:26.607Z,21.80
2018-03-16T15:10:54.125Z,23.58
2018-03-16T15:13:21.628Z,24.23
2018-03-16T15:15:49.103Z,23.10
2018-03-16T15:18:17.226Z,22.13
2018-03-16T15:20:44.737Z,22.52
2018-03-16T15:23:12.235Z,21.08
2018-03-16T15:25:39.726Z,21.87
2018-03-16T15:28:07.197Z,22.33
2018-03-16T15:30:34.682Z,21.95
2018-03-16T15:33:02.150Z,20.62
2018-03-16T15:35:29.725Z,26.52
2018-03-16T15:37:57.198Z,26.02
2018-03-16T15:40:25.445Z,22.37
2018-03-16T15:42:52.914Z,21.00
2018-03-16T15:45:20.424Z,22.17
2018-03-16T15:47:47.953Z,20.52
2018-03-16T15:50:15.417Z,20.60
2018-03-16T15:52:43.660Z,17.55
2018-03-16T15:55:11.132Z,19.70
2018-03-16T15:57:38.619Z,18.90
2018-03-16T16:00:06.850Z,17.05
2018-03-16T16:02:34.385Z,17.35
2018-03-16T16:05:01.901Z,15.52
2018-03-16T16:07:30.277Z,15.77
2018-03-16T16:09:57.846Z,14.07
2018-03-16T16:12:26.162Z,11.73
2018-03-16T16:14:53.618Z,15.75
2018-03-16T16:17:21.113Z,12.90
2018-03-16T16:19:48.718Z,18.10
2018-03-16T16:22:16.946Z,14.23
2018-03-16T16:24:44.429Z,14.20
2018-03-16T16:27:11.981Z,14.75
2018-03-16T16:29:39.513Z,12.00
2018-03-16T16:32:06.995Z,15.93
2018-03-16T16:34:34.502Z,17.70
2018-03-16T16:37:01.991Z,13.82
2018-03-16T16:39:29.475Z,12.93
2018-03-16T16:41:56.954Z,12.00
2018-03-16T16:44:25.195Z,10.80
2018-03-16T16:46:52.645Z,10.85
2018-03-16T16:49:20.884Z,11.65
2018-03-16T16:51:49.135Z,9.90
2018-03-16T16:54:17.479Z,10.77
2018-03-16T16:56:44.964Z,13.00
2018-03-16T16:59:12.421Z,12.48
2018-03-16T17:01:40.034Z,9.05
2018-03-16T17:04:07.491Z,11.05
2018-03-16T17:06:34.948Z,9.90
2018-03-16T17:09:03.182Z,12.23
2018-03-16T17:11:32.258Z,9.20
2018-03-16T17:13:59.830Z,7.55
2018-03-16T17:16:27.347Z,10.40
2018-03-16T17:18:55.020Z,8.30
2018-03-16T17:21:22.498Z,8.27
2018-03-16T17:23:49.966Z,9.77
2018-03-16T17:26:17.449Z,10.73
2018-03-16T17:28:45.709Z,7.62
2018-03-16T17:31:13.199Z,7.78
2018-03-16T17:33:41.453Z,11.02
2018-03-16T17:36:08.943Z,6.15
2018-03-16T17:38:36.446Z,7.85
2018-03-16T17:41:03.943Z,11.15
2018-03-16T17:43:32.213Z,9.60
2018-03-16T17:46:00.473Z,11.43
2018-03-16T17:48:27.998Z,9.07
2018-03-16T17:50:55.476Z,8.60
2018-03-16T17:53:23.076Z,12.70
2018-03-16T17:55:50.638Z,9.70
2018-03-16T17:58:18.869Z,14.30
2018-03-16T18:00:46.385Z,10.40
2018-03-16T18:03:14.613Z,9.68
2018-03-16T18:05:42.093Z,10.02
2018-03-16T18:08:09.569Z,11.45
2018-03-16T18:10:37.825Z,13.27
2018-03-16T18:13:05.297Z,9.05
2018-03-16T18:15:33.533Z,9.50
2018-03-16T18:20:54.719Z,10.27
2018-03-16T18:23:22.956Z,10.00
2018-03-16T18:25:50.457Z,8.75
2018-03-16T18:28:18.690Z,13.15
2018-03-16T18:30:46.141Z,8.32
2018-03-16T18:33:13.606Z,10.65
2018-03-16T18:35:41.121Z,8.45
2018-03-16T18:38:09.334Z,10.73
2018-03-16T18:40:36.791Z,7.05
2018-03-16T18:43:04.251Z,8.35
2018-03-16T18:45:31.726Z,10.57
2018-03-16T18:48:00.689Z,7.82
2018-03-16T18:50:28.294Z,7.32
2018-03-16T18:52:55.814Z,10.25
2018-03-16T18:55:23.261Z,6.93
2018-03-16T18:57:50.734Z,6.85
2018-03-16T19:00:18.238Z,9.23
2018-03-16T19:02:45.898Z,10.18
2018-03-16T19:05:13.422Z,8.48
2018-03-16T19:07:40.900Z,9.55
2018-03-16T19:10:08.366Z,8.40
2018-03-16T19:12:35.857Z,10.70
2018-03-16T19:15:04.097Z,15.75
2018-03-16T19:17:31.561Z,9.90
2018-03-16T19:19:59.059Z,9.05
2018-03-16T19:22:29.335Z,8.45
2018-03-16T19:24:56.802Z,10.38
2018-03-16T19:27:24.278Z,18.77
2018-03-16T19:29:51.740Z,8.35
2018-03-16T19:32:19.962Z,8.25
2018-03-16T19:34:47.443Z,12.25
2018-03-16T19:37:15.043Z,11.20
2018-03-16T19:39:43.290Z,10.82
2018-03-16T19:42:10.845Z,8.40
2018-03-16T19:44:38.322Z,7.32
2018-03-16T21:09:03.706Z,9.90
2018-03-16T21:11:31.995Z,8.32
2018-03-16T21:14:00.244Z,13.18
2018-03-16T21:16:27.717Z,9.95
2018-03-16T21:18:55.177Z,8.73
2018-03-16T21:21:22.659Z,7.95
2018-03-16T21:23:50.890Z,11.43
2018-03-16T21:26:18.358Z,18.10
2018-03-16T21:28:45.943Z,8.82
2018-03-16T21:31:14.169Z,8.65
2018-03-16T21:33:41.643Z,9.05
2018-03-16T21:36:09.124Z,8.68
2018-03-16T21:38:36.607Z,9.82
2018-03-16T21:41:04.856Z,9.32
2018-03-16T21:43:32.325Z,9.02
2018-03-16T21:45:59.790Z,5.35
2018-03-16T21:48:28.058Z,9.05
2018-03-16T21:50:55.535Z,7.97
2018-03-16T21:53:23.808Z,9.65
2018-03-16T21:55:52.108Z,10.38
2018-03-16T21:58:19.603Z,5.35
2018-03-16T22:00:47.123Z,9.63
2018-03-16T22:03:14.617Z,8.05
2018-03-16T22:05:42.099Z,5.68
2018-03-16T22:08:09.726Z,8.40
2018-03-16T22:10:37.430Z,7.57
2018-03-16T22:13:04.910Z,7.72
2018-03-16T22:15:34.337Z,7.68
2018-03-16T22:18:01.968Z,6.80
2018-03-16T22:20:30.216Z,4.80
2018-03-16T22:22:57.669Z,5.93
2018-03-16T22:25:25.138Z,7.22
2018-03-16T22:27:52.590Z,8.90
2018-03-16T22:30:20.061Z,8.63
2018-03-16T22:32:47.658Z,9.27
2018-03-16T22:35:15.204Z,6.18
2018-03-16T22:37:42.707Z,7.45
2018-03-16T22:40:10.184Z,11.00
2018-03-16T22:42:37.756Z,6.75
2018-03-16T22:45:05.213Z,7.57
2018-03-16T22:47:32.693Z,5.80
2018-03-16T22:50:00.971Z,6.12
2018-03-16T22:52:28.430Z,7.50
2018-03-16T22:54:56.728Z,9.05
2018-03-16T22:57:25.002Z,8.57
2018-03-16T22:59:53.243Z,6.60
2018-03-16T23:02:20.715Z,7.60
2018-03-16T23:04:48.223Z,6.07
2018-03-16T23:07:15.686Z,6.85
2018-03-16T23:09:43.144Z,4.50
2018-03-16T23:12:10.602Z,8.65
2018-03-16T23:14:38.082Z,7.32
2018-03-16T23:17:05.556Z,8.20
2018-03-16T23:19:33.032Z,6.40
2018-03-16T23:22:01.269Z,8.00
2018-03-16T23:24:28.803Z,6.03
2018-03-16T23:26:56.310Z,8.20
2018-03-16T23:29:23.791Z,31.05
2018-03-16T23:31:51.323Z,11.77
2018-03-16T23:34:18.800Z,13.75
2018-03-16T23:36:47.058Z,6.57
2018-03-16T23:39:14.529Z,5.90
2018-03-16T23:41:42.000Z,12.07
2018-03-16T23:44:09.782Z,11.25
2018-03-16T23:46:37.262Z,6.03
2018-03-16T23:49:04.742Z,7.80
2018-03-16T23:51:32.201Z,6.75
2018-03-16T23:53:59.671Z,6.45
2018-03-16T23:56:27.130Z,6.75
2018-03-16T23:58:54.605Z,6.10
